SRR116 EGGD-EGAA
Flight info
| Callsign | SRR116 |
|---|---|
| Flight time | 0h 47m |
| Altitude | 26000 |
| Route | BCN P69 FEBWI/N0468F280 P69 DIZIM/N0462F270 DCT KISWO DCT AVTIC/N0469F280 DCT MONTY UN864 BILVO UP6 TUPEM DCT REMSI DCT UVPOK M147 ROBOP M146 IPSET P6 BELZU |
| Aircraft | B77L/H-SDE1E2E3FGHIJ2J3J4J5M1RWXY/LB1D1 |
Departure
| Time | 2026-05-05 17:43 |
|---|---|
| Airport | Bristol Airport (EGGD) |
Arrival
| Time | 2026-05-05 18:30 |
|---|---|
| Airport | Belfast International Airport (EGAA) |
| Time | Latitude | Longitude | Altitude | Speed | Heading |
|---|---|---|---|---|---|
| 2026-05-05 17:25 | 51.38567 | -2.71780 | 621 ft | 0 kts | 87° |
| 2026-05-05 17:33 | 51.38567 | -2.71806 | 629 ft | 2 kts | 86° |
| 2026-05-05 17:33 | 51.38565 | -2.71833 | 622 ft | 2 kts | 85° |
| 2026-05-05 17:34 | 51.38564 | -2.71859 | 622 ft | 2 kts | 83° |
| 2026-05-05 17:34 | 51.38562 | -2.71885 | 626 ft | 2 kts | 82° |
| 2026-05-05 17:34 | 51.38561 | -2.71896 | 627 ft | 0 kts | 86° |
| 2026-05-05 17:38 | 51.38561 | -2.71895 | 622 ft | 1 kts | 86° |
| 2026-05-05 17:38 | 51.38530 | -2.71842 | 625 ft | 10 kts | 174° |
| 2026-05-05 17:38 | 51.38449 | -2.71866 | 634 ft | 12 kts | 219° |
| 2026-05-05 17:38 | 51.38431 | -2.71999 | 622 ft | 13 kts | 267° |
| 2026-05-05 17:39 | 51.38425 | -2.72161 | 630 ft | 16 kts | 266° |
| 2026-05-05 17:39 | 51.38417 | -2.72351 | 620 ft | 18 kts | 266° |
| 2026-05-05 17:39 | 51.38409 | -2.72565 | 632 ft | 20 kts | 266° |
| 2026-05-05 17:39 | 51.38400 | -2.72798 | 624 ft | 22 kts | 266° |
| 2026-05-05 17:40 | 51.38391 | -2.73041 | 624 ft | 22 kts | 266° |
| 2026-05-05 17:40 | 51.38379 | -2.73248 | 636 ft | 13 kts | 253° |
| 2026-05-05 17:40 | 51.38318 | -2.73339 | 636 ft | 12 kts | 197° |
| 2026-05-05 17:40 | 51.38254 | -2.73340 | 635 ft | 7 kts | 169° |
| 2026-05-05 17:41 | 51.38216 | -2.73316 | 640 ft | 4 kts | 127° |
| 2026-05-05 17:41 | 51.38213 | -2.73285 | 641 ft | 4 kts | 93° |
| 2026-05-05 17:41 | 51.38214 | -2.73261 | 637 ft | 0 kts | 86° |
| 2026-05-05 17:43 | 51.38216 | -2.73216 | 636 ft | 26 kts | 86° |
| 2026-05-05 17:43 | 51.38251 | -2.72362 | 634 ft | 125 kts | 86° |
| 2026-05-05 17:43 | 51.38313 | -2.70504 | 775 ft | 192 kts | 84° |
| 2026-05-05 17:43 | 51.38384 | -2.68422 | 1923 ft | 186 kts | 82° |
| 2026-05-05 17:44 | 51.38475 | -2.66328 | 2896 ft | 191 kts | 81° |
| 2026-05-05 17:44 | 51.38584 | -2.64079 | 3246 ft | 216 kts | 84° |
| 2026-05-05 17:44 | 51.38649 | -2.61529 | 3639 ft | 240 kts | 84° |
| 2026-05-05 17:44 | 51.38717 | -2.58766 | 4352 ft | 252 kts | 84° |
| 2026-05-05 17:45 | 51.38961 | -2.55967 | 5021 ft | 257 kts | 63° |
| 2026-05-05 17:45 | 51.40083 | -2.53804 | 5566 ft | 253 kts | 28° |
| 2026-05-05 17:45 | 51.41749 | -2.53191 | 6101 ft | 251 kts | 351° |
| 2026-05-05 17:45 | 51.43306 | -2.54410 | 6956 ft | 255 kts | 314° |
| 2026-05-05 17:46 | 51.44288 | -2.56789 | 7712 ft | 259 kts | 302° |
| 2026-05-05 17:46 | 51.45260 | -2.59242 | 8557 ft | 262 kts | 304° |
| 2026-05-05 17:46 | 51.46280 | -2.61678 | 9445 ft | 264 kts | 304° |
| 2026-05-05 17:46 | 51.47317 | -2.64153 | 10233 ft | 270 kts | 304° |
| 2026-05-05 17:47 | 51.48377 | -2.66702 | 10689 ft | 289 kts | 304° |
| 2026-05-05 17:47 | 51.49563 | -2.69568 | 10849 ft | 319 kts | 303° |
| 2026-05-05 17:47 | 51.50839 | -2.72668 | 11033 ft | 347 kts | 303° |
| 2026-05-05 17:47 | 51.52182 | -2.75939 | 11576 ft | 360 kts | 303° |
| 2026-05-05 17:48 | 51.53568 | -2.79325 | 12550 ft | 363 kts | 303° |
| 2026-05-05 17:48 | 51.54953 | -2.82714 | 13620 ft | 363 kts | 302° |
| 2026-05-05 17:48 | 51.56342 | -2.86117 | 14579 ft | 364 kts | 302° |
| 2026-05-05 17:48 | 51.57733 | -2.89532 | 15442 ft | 368 kts | 302° |
| 2026-05-05 17:49 | 51.59150 | -2.93013 | 16131 ft | 375 kts | 302° |
| 2026-05-05 17:49 | 51.60593 | -2.96565 | 16859 ft | 381 kts | 302° |
| 2026-05-05 17:49 | 51.62047 | -3.00149 | 17627 ft | 386 kts | 302° |
| 2026-05-05 17:49 | 51.63505 | -3.03745 | 18350 ft | 392 kts | 302° |
| 2026-05-05 17:50 | 51.65010 | -3.07464 | 18925 ft | 399 kts | 302° |
| 2026-05-05 17:50 | 51.66534 | -3.11232 | 19628 ft | 402 kts | 302° |
| 2026-05-05 17:50 | 51.68068 | -3.15033 | 20255 ft | 407 kts | 302° |
| 2026-05-05 17:50 | 51.69622 | -3.18864 | 20904 ft | 408 kts | 304° |
| 2026-05-05 17:51 | 51.71586 | -3.22210 | 21301 ft | 420 kts | 323° |
| 2026-05-05 17:51 | 51.74225 | -3.24357 | 21800 ft | 431 kts | 341° |
| 2026-05-05 17:51 | 51.77206 | -3.25229 | 22332 ft | 441 kts | 357° |
| 2026-05-05 17:51 | 51.80273 | -3.24725 | 22877 ft | 447 kts | 8° |
| 2026-05-05 17:52 | 51.83317 | -3.23828 | 23405 ft | 452 kts | 9° |
| 2026-05-05 17:52 | 51.86430 | -3.22910 | 23955 ft | 456 kts | 8° |
| 2026-05-05 17:52 | 51.89565 | -3.22068 | 24528 ft | 458 kts | 7° |
| 2026-05-05 17:52 | 51.92727 | -3.21292 | 25091 ft | 460 kts | 7° |
| 2026-05-05 17:53 | 51.95903 | -3.20539 | 25615 ft | 463 kts | 7° |
| 2026-05-05 17:53 | 51.99095 | -3.19758 | 26028 ft | 463 kts | 7° |
| 2026-05-05 17:53 | 52.02275 | -3.18952 | 25989 ft | 463 kts | 7° |
| 2026-05-05 17:53 | 52.05469 | -3.18296 | 26000 ft | 462 kts | 3° |
| 2026-05-05 17:54 | 52.08677 | -3.17998 | 25993 ft | 461 kts | 1° |
| 2026-05-05 17:54 | 52.11884 | -3.17780 | 26002 ft | 461 kts | 1° |
| 2026-05-05 17:54 | 52.15094 | -3.17581 | 26000 ft | 462 kts | 1° |
| 2026-05-05 17:54 | 52.18305 | -3.17375 | 26001 ft | 462 kts | 1° |
| 2026-05-05 17:55 | 52.21513 | -3.17154 | 26004 ft | 462 kts | 1° |
| 2026-05-05 17:55 | 52.24685 | -3.16922 | 26010 ft | 462 kts | 1° |
| 2026-05-05 17:55 | 52.27901 | -3.16678 | 26007 ft | 462 kts | 1° |
| 2026-05-05 17:55 | 52.31107 | -3.16432 | 26006 ft | 461 kts | 1° |
| 2026-05-05 17:56 | 52.34321 | -3.16183 | 26008 ft | 461 kts | 1° |
| 2026-05-05 17:56 | 52.37524 | -3.15933 | 26009 ft | 460 kts | 1° |
| 2026-05-05 17:56 | 52.40723 | -3.15685 | 26014 ft | 460 kts | 1° |
| 2026-05-05 17:56 | 52.43927 | -3.15436 | 26012 ft | 459 kts | 1° |
| 2026-05-05 17:57 | 52.47084 | -3.15192 | 26009 ft | 459 kts | 1° |
| 2026-05-05 17:57 | 52.50276 | -3.14944 | 26018 ft | 459 kts | 1° |
| 2026-05-05 17:57 | 52.53461 | -3.14697 | 26012 ft | 459 kts | 1° |
| 2026-05-05 17:57 | 52.56651 | -3.14448 | 26017 ft | 458 kts | 1° |
| 2026-05-05 17:58 | 52.59841 | -3.14199 | 26022 ft | 458 kts | 1° |
| 2026-05-05 17:58 | 52.63027 | -3.13952 | 26025 ft | 458 kts | 1° |
| 2026-05-05 17:58 | 52.66215 | -3.13712 | 26021 ft | 458 kts | 1° |
| 2026-05-05 17:58 | 52.69406 | -3.13479 | 26025 ft | 458 kts | 0° |
| 2026-05-05 17:59 | 52.72591 | -3.13496 | 26023 ft | 457 kts | 355° |
| 2026-05-05 17:59 | 52.75712 | -3.14060 | 26027 ft | 456 kts | 350° |
| 2026-05-05 17:59 | 52.78847 | -3.14864 | 26033 ft | 456 kts | 349° |
| 2026-05-05 17:59 | 52.81989 | -3.15669 | 26034 ft | 456 kts | 350° |
| 2026-05-05 18:00 | 52.85142 | -3.16433 | 26030 ft | 457 kts | 350° |
| 2026-05-05 18:00 | 52.88295 | -3.17115 | 26025 ft | 457 kts | 353° |
| 2026-05-05 18:00 | 52.91493 | -3.17360 | 26031 ft | 459 kts | 359° |
| 2026-05-05 18:00 | 52.94646 | -3.17092 | 26040 ft | 459 kts | 2° |
| 2026-05-05 18:01 | 52.97838 | -3.16763 | 26042 ft | 460 kts | 1° |
| 2026-05-05 18:01 | 53.01039 | -3.16468 | 26056 ft | 460 kts | 1° |
| 2026-05-05 18:01 | 53.04241 | -3.16198 | 26047 ft | 460 kts | 1° |
| 2026-05-05 18:01 | 53.07444 | -3.15935 | 26045 ft | 460 kts | 1° |
| 2026-05-05 18:02 | 53.10650 | -3.15678 | 26048 ft | 461 kts | 1° |
| 2026-05-05 18:02 | 53.13815 | -3.15426 | 26049 ft | 461 kts | 1° |
| 2026-05-05 18:02 | 53.17012 | -3.15172 | 26049 ft | 461 kts | 1° |
| 2026-05-05 18:02 | 53.20194 | -3.14920 | 26054 ft | 461 kts | 1° |
| 2026-05-05 18:03 | 53.23416 | -3.14663 | 26051 ft | 461 kts | 1° |
| 2026-05-05 18:03 | 53.26624 | -3.14407 | 26048 ft | 461 kts | 1° |
| 2026-05-05 18:03 | 53.29826 | -3.14152 | 26046 ft | 461 kts | 1° |
| 2026-05-05 18:03 | 53.33025 | -3.13896 | 26025 ft | 461 kts | 1° |
| 2026-05-05 18:04 | 53.36230 | -3.13639 | 26030 ft | 461 kts | 0° |
| 2026-05-05 18:04 | 53.39439 | -3.13466 | 26028 ft | 460 kts | 357° |
| 2026-05-05 18:04 | 53.42636 | -3.13775 | 26029 ft | 459 kts | 352° |
| 2026-05-05 18:04 | 53.44739 | -3.14117 | 26026 ft | 459 kts | 352° |
| 2026-05-05 18:05 | 53.47911 | -3.14665 | 26027 ft | 459 kts | 352° |
| 2026-05-05 18:05 | 53.51095 | -3.15206 | 26032 ft | 459 kts | 352° |
| 2026-05-05 18:05 | 53.55318 | -3.15879 | 26026 ft | 460 kts | 352° |
| 2026-05-05 18:05 | 53.58509 | -3.16368 | 26028 ft | 460 kts | 352° |
| 2026-05-05 18:06 | 53.60667 | -3.16697 | 26029 ft | 460 kts | 352° |
| 2026-05-05 18:06 | 53.62781 | -3.17018 | 26025 ft | 461 kts | 352° |
| 2026-05-05 18:06 | 53.67055 | -3.17671 | 26022 ft | 461 kts | 352° |
| 2026-05-05 18:06 | 53.70144 | -3.18539 | 26013 ft | 453 kts | 339° |
| 2026-05-05 18:07 | 53.72938 | -3.20883 | 26028 ft | 447 kts | 322° |
| 2026-05-05 18:07 | 53.75230 | -3.24377 | 26030 ft | 444 kts | 307° |
| 2026-05-05 18:07 | 53.76937 | -3.28676 | 26033 ft | 439 kts | 298° |
| 2026-05-05 18:07 | 53.78469 | -3.33158 | 26026 ft | 441 kts | 298° |
| 2026-05-05 18:08 | 53.80021 | -3.37648 | 26026 ft | 443 kts | 298° |
| 2026-05-05 18:08 | 53.81606 | -3.42117 | 26028 ft | 444 kts | 299° |
| 2026-05-05 18:08 | 53.83218 | -3.46598 | 26028 ft | 445 kts | 299° |
| 2026-05-05 18:08 | 53.84832 | -3.51083 | 26029 ft | 445 kts | 299° |
| 2026-05-05 18:09 | 53.86434 | -3.55569 | 26025 ft | 445 kts | 299° |
| 2026-05-05 18:09 | 53.88029 | -3.60058 | 26029 ft | 444 kts | 299° |
| 2026-05-05 18:09 | 53.89596 | -3.64476 | 26027 ft | 443 kts | 299° |
| 2026-05-05 18:09 | 53.91185 | -3.68960 | 26025 ft | 442 kts | 299° |
| 2026-05-05 18:10 | 53.92765 | -3.73423 | 26026 ft | 441 kts | 299° |
| 2026-05-05 18:10 | 53.94288 | -3.77948 | 26027 ft | 439 kts | 295° |
| 2026-05-05 18:10 | 53.95473 | -3.82700 | 26031 ft | 437 kts | 288° |
| 2026-05-05 18:10 | 53.96377 | -3.87623 | 26038 ft | 435 kts | 283° |
| 2026-05-05 18:11 | 53.96968 | -3.92586 | 26030 ft | 434 kts | 278° |
| 2026-05-05 18:11 | 53.97393 | -3.97659 | 26038 ft | 434 kts | 277° |
| 2026-05-05 18:11 | 53.97809 | -4.02742 | 26037 ft | 434 kts | 277° |
| 2026-05-05 18:11 | 53.98245 | -4.07835 | 26034 ft | 435 kts | 278° |
| 2026-05-05 18:12 | 53.98695 | -4.12927 | 26036 ft | 436 kts | 279° |
| 2026-05-05 18:12 | 53.99404 | -4.17951 | 26034 ft | 437 kts | 287° |
| 2026-05-05 18:12 | 54.00528 | -4.22767 | 26045 ft | 438 kts | 294° |
| 2026-05-05 18:12 | 54.01955 | -4.27356 | 26043 ft | 440 kts | 301° |
| 2026-05-05 18:13 | 54.03691 | -4.31576 | 26048 ft | 441 kts | 304° |
| 2026-05-05 18:13 | 54.05513 | -4.35782 | 26044 ft | 441 kts | 304° |
| 2026-05-05 18:13 | 54.07316 | -4.40018 | 26046 ft | 442 kts | 304° |
| 2026-05-05 18:13 | 54.09099 | -4.44293 | 26049 ft | 442 kts | 303° |
| 2026-05-05 18:14 | 54.10862 | -4.48587 | 26049 ft | 442 kts | 303° |
| 2026-05-05 18:14 | 54.12616 | -4.52892 | 26036 ft | 435 kts | 303° |
| 2026-05-05 18:14 | 54.14320 | -4.57073 | 25961 ft | 424 kts | 303° |
| 2026-05-05 18:14 | 54.15979 | -4.61142 | 25467 ft | 421 kts | 303° |
| 2026-05-05 18:15 | 54.17643 | -4.65226 | 24971 ft | 417 kts | 303° |
| 2026-05-05 18:15 | 54.19316 | -4.69322 | 24489 ft | 413 kts | 303° |
| 2026-05-05 18:15 | 54.20934 | -4.73283 | 23987 ft | 410 kts | 303° |
| 2026-05-05 18:15 | 54.22561 | -4.77271 | 23488 ft | 407 kts | 303° |
| 2026-05-05 18:16 | 54.24168 | -4.81217 | 23029 ft | 401 kts | 303° |
| 2026-05-05 18:16 | 54.25748 | -4.85104 | 22583 ft | 396 kts | 303° |
| 2026-05-05 18:16 | 54.27292 | -4.88909 | 21945 ft | 384 kts | 303° |
| 2026-05-05 18:16 | 54.28809 | -4.92653 | 20966 ft | 380 kts | 303° |
| 2026-05-05 18:17 | 54.30310 | -4.96368 | 19983 ft | 378 kts | 303° |
| 2026-05-05 18:17 | 54.31800 | -5.00058 | 19065 ft | 374 kts | 303° |
| 2026-05-05 18:17 | 54.33272 | -5.03709 | 18185 ft | 369 kts | 303° |
| 2026-05-05 18:17 | 54.34721 | -5.07310 | 17268 ft | 364 kts | 303° |
| 2026-05-05 18:18 | 54.36146 | -5.10855 | 16379 ft | 358 kts | 303° |
| 2026-05-05 18:18 | 54.37546 | -5.14342 | 15512 ft | 352 kts | 303° |
| 2026-05-05 18:18 | 54.38908 | -5.17739 | 14660 ft | 348 kts | 303° |
| 2026-05-05 18:18 | 54.40285 | -5.21181 | 13789 ft | 343 kts | 303° |
| 2026-05-05 18:19 | 54.41608 | -5.24488 | 13127 ft | 333 kts | 303° |
| 2026-05-05 18:19 | 54.42872 | -5.27650 | 12959 ft | 309 kts | 303° |
| 2026-05-05 18:19 | 54.44043 | -5.30585 | 12768 ft | 288 kts | 303° |
| 2026-05-05 18:19 | 54.45152 | -5.33351 | 12425 ft | 274 kts | 305° |
| 2026-05-05 18:20 | 54.46379 | -5.35799 | 11915 ft | 268 kts | 313° |
| 2026-05-05 18:20 | 54.47693 | -5.38048 | 11322 ft | 265 kts | 314° |
| 2026-05-05 18:20 | 54.47846 | -5.38308 | 11250 ft | 265 kts | 314° |
| 2026-05-05 18:20 | 54.48274 | -5.39041 | 11055 ft | 264 kts | 314° |
| 2026-05-05 18:21 | 54.49565 | -5.41279 | 10467 ft | 262 kts | 314° |
| 2026-05-05 18:21 | 54.50836 | -5.43509 | 9868 ft | 261 kts | 314° |
| 2026-05-05 18:21 | 54.52071 | -5.45725 | 9218 ft | 259 kts | 310° |
| 2026-05-05 18:21 | 54.53159 | -5.48122 | 8824 ft | 246 kts | 306° |
| 2026-05-05 18:22 | 54.54141 | -5.50476 | 8485 ft | 238 kts | 306° |
| 2026-05-05 18:22 | 54.55101 | -5.52795 | 8228 ft | 242 kts | 306° |
| 2026-05-05 18:22 | 54.56115 | -5.55239 | 7941 ft | 260 kts | 306° |
| 2026-05-05 18:22 | 54.57189 | -5.57812 | 7622 ft | 267 kts | 306° |
| 2026-05-05 18:23 | 54.58277 | -5.60411 | 7294 ft | 267 kts | 307° |
| 2026-05-05 18:23 | 54.59365 | -5.62998 | 6955 ft | 264 kts | 307° |
| 2026-05-05 18:23 | 54.60421 | -5.65512 | 6636 ft | 260 kts | 307° |
| 2026-05-05 18:23 | 54.61478 | -5.68023 | 6323 ft | 256 kts | 307° |
| 2026-05-05 18:24 | 54.62519 | -5.70498 | 5987 ft | 253 kts | 307° |
| 2026-05-05 18:24 | 54.63544 | -5.72935 | 5692 ft | 250 kts | 307° |
| 2026-05-05 18:24 | 54.64571 | -5.75378 | 5408 ft | 253 kts | 307° |
| 2026-05-05 18:24 | 54.65609 | -5.77850 | 5101 ft | 256 kts | 307° |
| 2026-05-05 18:25 | 54.66649 | -5.80326 | 4793 ft | 257 kts | 307° |
| 2026-05-05 18:25 | 54.67345 | -5.81984 | 4555 ft | 255 kts | 307° |
| 2026-05-05 18:25 | 54.68724 | -5.85269 | 4153 ft | 249 kts | 307° |
| 2026-05-05 18:25 | 54.69715 | -5.87638 | 4046 ft | 237 kts | 308° |
| 2026-05-05 18:26 | 54.70658 | -5.89896 | 3824 ft | 227 kts | 308° |
| 2026-05-05 18:26 | 54.71559 | -5.92050 | 3585 ft | 215 kts | 308° |
| 2026-05-05 18:26 | 54.72219 | -5.94266 | 3337 ft | 205 kts | 282° |
| 2026-05-05 18:26 | 54.72084 | -5.96682 | 3067 ft | 199 kts | 257° |
| 2026-05-05 18:27 | 54.71674 | -5.98867 | 2811 ft | 184 kts | 256° |
| 2026-05-05 18:27 | 54.71266 | -6.00870 | 2585 ft | 169 kts | 253° |
| 2026-05-05 18:27 | 54.70823 | -6.02662 | 2496 ft | 160 kts | 251° |
| 2026-05-05 18:27 | 54.70367 | -6.04385 | 2308 ft | 156 kts | 250° |
| 2026-05-05 18:28 | 54.69435 | -6.07868 | 1861 ft | 160 kts | 251° |
| 2026-05-05 18:28 | 54.68969 | -6.09597 | 1612 ft | 157 kts | 251° |
| 2026-05-05 18:28 | 54.68513 | -6.11298 | 1392 ft | 156 kts | 250° |
| 2026-05-05 18:29 | 54.68053 | -6.13015 | 1183 ft | 157 kts | 250° |
| 2026-05-05 18:29 | 54.67595 | -6.14717 | 916 ft | 156 kts | 251° |
| 2026-05-05 18:29 | 54.67140 | -6.16359 | 737 ft | 154 kts | 251° |
| 2026-05-05 18:29 | 54.66690 | -6.18059 | 522 ft | 155 kts | 250° |
| 2026-05-05 18:30 | 54.66238 | -6.19738 | 313 ft | 154 kts | 250° |
| 2026-05-05 18:30 | 54.65815 | -6.21323 | 276 ft | 123 kts | 245° |
| 2026-05-05 18:30 | 54.65552 | -6.22301 | 276 ft | 57 kts | 244° |
| 2026-05-05 18:30 | 54.65480 | -6.22563 | 276 ft | 3 kts | 245° |
| 2026-05-05 18:31 | 54.65471 | -6.22654 | 276 ft | 10 kts | 290° |
| 2026-05-05 18:31 | 54.65533 | -6.22717 | 276 ft | 12 kts | 342° |
| 2026-05-05 18:31 | 54.65620 | -6.22765 | 276 ft | 14 kts | 342° |
| 2026-05-05 18:31 | 54.65692 | -6.22797 | 276 ft | 8 kts | 360° |
| 2026-05-05 18:32 | 54.65729 | -6.22765 | 276 ft | 4 kts | 54° |
| 2026-05-05 18:32 | 54.65738 | -6.22728 | 276 ft | 6 kts | 71° |
| 2026-05-05 18:32 | 54.65747 | -6.22620 | 276 ft | 10 kts | 87° |
| 2026-05-05 18:32 | 54.65752 | -6.22507 | 276 ft | 10 kts | 84° |
| 2026-05-05 18:33 | 54.65761 | -6.22394 | 276 ft | 9 kts | 82° |
| 2026-05-05 18:33 | 54.65770 | -6.22270 | 276 ft | 12 kts | 82° |
| 2026-05-05 18:33 | 54.65780 | -6.22169 | 276 ft | 7 kts | 75° |
| 2026-05-05 18:33 | 54.65798 | -6.22085 | 276 ft | 8 kts | 65° |
| 2026-05-05 18:34 | 54.65851 | -6.22012 | 276 ft | 13 kts | 359° |
| 2026-05-05 18:34 | 54.65929 | -6.22069 | 279 ft | 8 kts | 334° |
| 2026-05-05 18:34 | 54.65959 | -6.22122 | 276 ft | 5 kts | 279° |
| 2026-05-05 18:34 | 54.65936 | -6.22171 | 276 ft | 6 kts | 202° |
| 2026-05-05 18:35 | 54.65905 | -6.22163 | 276 ft | 2 kts | 153° |
| 2026-05-05 18:35 | 54.65899 | -6.22158 | 276 ft | 0 kts | 153° |